createdAt,value
2018-03-26T00:00:34.616Z,24.63
2018-03-26T00:03:02.095Z,24.87
2018-03-26T00:05:29.552Z,22.60
2018-03-26T00:07:57.014Z,23.07
2018-03-26T00:10:24.474Z,25.10
2018-03-26T00:12:52.715Z,21.10
2018-03-26T00:15:20.172Z,21.87
2018-03-26T00:17:47.644Z,20.63
2018-03-26T00:20:15.127Z,22.53
2018-03-26T00:22:43.357Z,18.77
2018-03-26T00:25:10.846Z,16.10
2018-03-26T00:27:38.320Z,19.40
2018-03-26T00:30:06.544Z,17.20
2018-03-26T00:32:34.014Z,17.97
2018-03-26T00:35:01.479Z,17.23
2018-03-26T00:37:28.938Z,17.43
2018-03-26T00:39:56.414Z,13.50
2018-03-26T00:42:24.658Z,14.63
2018-03-26T00:44:52.117Z,16.77
2018-03-26T00:47:20.219Z,14.37
2018-03-26T00:49:48.466Z,18.10
2018-03-26T00:52:15.940Z,15.13
2018-03-26T00:54:43.395Z,15.30
2018-03-26T00:57:10.867Z,13.60
2018-03-26T00:59:39.096Z,14.00
2018-03-26T01:02:06.582Z,14.37
2018-03-26T01:04:34.068Z,15.40
2018-03-26T01:07:01.541Z,15.27
2018-03-26T01:09:28.999Z,17.37
2018-03-26T01:11:56.476Z,15.87
2018-03-26T01:14:23.938Z,15.20
2018-03-26T01:16:51.408Z,11.97
2018-03-26T01:19:18.889Z,12.37
2018-03-26T01:21:46.344Z,12.60
2018-03-26T01:24:13.797Z,13.70
2018-03-26T01:26:41.275Z,11.17
2018-03-26T01:29:09.502Z,11.13
2018-03-26T01:31:36.977Z,11.57
2018-03-26T01:34:04.459Z,11.37
2018-03-26T01:36:32.678Z,11.33
2018-03-26T01:39:00.141Z,10.20
2018-03-26T01:41:27.614Z,11.43
2018-03-26T01:43:55.079Z,12.87
2018-03-26T01:46:22.555Z,11.23
2018-03-26T01:48:50.790Z,10.80
2018-03-26T01:51:18.255Z,11.37
2018-03-26T01:53:45.714Z,9.60
2018-03-26T01:56:13.191Z,10.47
2018-03-26T01:58:41.427Z,11.60
2018-03-26T02:01:09.792Z,10.77
2018-03-26T02:03:37.267Z,11.30
2018-03-26T02:06:04.742Z,11.03
2018-03-26T02:08:32.210Z,11.17
2018-03-26T02:10:59.681Z,11.73
2018-03-26T02:13:27.915Z,11.80
2018-03-26T02:15:55.390Z,11.23
2018-03-26T02:18:22.865Z,11.63
2018-03-26T02:20:51.098Z,11.60
2018-03-26T02:23:18.565Z,14.60
2018-03-26T02:25:46.048Z,10.00
2018-03-26T02:28:13.516Z,9.73
2018-03-26T02:30:41.751Z,10.90
2018-03-26T02:33:09.218Z,11.77
2018-03-26T02:35:36.687Z,9.17
2018-03-26T02:38:04.142Z,9.90
2018-03-26T02:40:31.612Z,10.07
2018-03-26T02:42:59.849Z,8.93
2018-03-26T02:45:27.315Z,7.27
2018-03-26T02:47:54.787Z,8.47
2018-03-26T02:50:22.243Z,8.93
2018-03-26T02:52:49.699Z,6.97
2018-03-26T02:55:17.180Z,7.43
2018-03-26T02:57:45.403Z,9.17
2018-03-26T03:00:12.871Z,8.23
2018-03-26T03:02:40.348Z,8.37
2018-03-26T03:05:07.843Z,9.70
2018-03-26T03:07:35.294Z,7.83
2018-03-26T03:10:02.768Z,7.53
2018-03-26T03:12:31.011Z,7.00
2018-03-26T03:14:59.244Z,8.07
2018-03-26T03:17:26.718Z,7.37
2018-03-26T03:19:54.185Z,7.87
2018-03-26T03:22:22.423Z,9.50
2018-03-26T03:24:49.894Z,9.63
2018-03-26T03:27:17.363Z,8.00
2018-03-26T03:29:44.822Z,9.07
2018-03-26T03:32:12.296Z,8.10
2018-03-26T03:34:39.776Z,8.53
2018-03-26T03:37:07.290Z,8.27
2018-03-26T03:39:34.710Z,8.77
2018-03-26T03:42:02.171Z,9.70
2018-03-26T03:44:30.417Z,9.47
2018-03-26T03:46:58.660Z,9.23
2018-03-26T03:49:26.123Z,8.70
2018-03-26T03:51:53.582Z,10.40
2018-03-26T03:54:21.054Z,10.30
2018-03-26T03:56:49.287Z,10.57
2018-03-26T03:59:16.756Z,10.07
2018-03-26T04:01:44.226Z,8.90
2018-03-26T04:04:11.696Z,9.50
2018-03-26T04:06:40.336Z,9.60
2018-03-26T04:09:07.803Z,9.67
2018-03-26T04:11:35.287Z,10.93
2018-03-26T04:14:02.744Z,9.43
2018-03-26T04:16:30.998Z,10.00
2018-03-26T04:18:58.466Z,10.80
2018-03-26T04:21:25.919Z,9.80
2018-03-26T04:23:53.394Z,11.80
2018-03-26T04:26:21.632Z,10.57
2018-03-26T04:28:49.093Z,8.27
2018-03-26T04:31:17.355Z,10.13
2018-03-26T04:33:44.810Z,8.73
2018-03-26T04:36:12.281Z,8.80
2018-03-26T04:38:39.779Z,11.70
2018-03-26T04:41:08.011Z,9.83
2018-03-26T04:43:35.491Z,8.80
2018-03-26T04:46:02.962Z,12.63
2018-03-26T04:48:31.193Z,9.23
2018-03-26T04:50:58.650Z,11.37
2018-03-26T04:53:26.130Z,11.70
2018-03-26T04:55:53.618Z,11.00
2018-03-26T04:58:21.827Z,11.70
2018-03-26T05:00:49.302Z,10.10
2018-03-26T05:03:16.775Z,11.07
2018-03-26T05:05:44.244Z,13.33
2018-03-26T05:08:12.495Z,12.27
2018-03-26T05:10:39.975Z,10.90
2018-03-26T05:13:07.435Z,9.67
2018-03-26T05:15:35.726Z,9.30
2018-03-26T05:18:03.963Z,10.87
2018-03-26T05:20:31.426Z,9.23
2018-03-26T05:22:58.905Z,9.50
2018-03-26T05:25:27.132Z,7.27
2018-03-26T05:27:54.599Z,6.83
2018-03-26T05:30:22.068Z,5.83
2018-03-26T05:32:49.544Z,6.63
2018-03-26T05:35:17.015Z,7.90
2018-03-26T05:37:45.294Z,7.27
2018-03-26T05:40:13.543Z,5.20
2018-03-26T05:42:41.006Z,7.63
2018-03-26T05:45:08.517Z,6.77
2018-03-26T05:47:35.985Z,6.93
2018-03-26T05:50:03.444Z,8.53
2018-03-26T05:52:31.751Z,7.40
2018-03-26T05:54:59.215Z,11.20
2018-03-26T05:57:26.682Z,7.63
2018-03-26T05:59:54.922Z,8.03
2018-03-26T06:02:22.396Z,9.57
2018-03-26T06:04:49.855Z,9.57
2018-03-26T06:07:17.338Z,11.50
2018-03-26T06:09:45.567Z,10.70
2018-03-26T06:12:13.039Z,10.03
2018-03-26T06:14:41.209Z,9.70
2018-03-26T06:17:13.125Z,13.97
2018-03-26T06:19:40.591Z,8.43
2018-03-26T06:22:08.399Z,11.97
2018-03-26T06:24:35.868Z,10.77
2018-03-26T06:27:04.106Z,13.83
2018-03-26T06:29:31.585Z,12.23
2018-03-26T06:31:59.046Z,12.40
2018-03-26T06:34:26.524Z,10.90
2018-03-26T06:36:54.747Z,10.43
2018-03-26T06:39:30.743Z,11.30
2018-03-26T06:41:58.975Z,14.67
2018-03-26T06:44:26.642Z,11.60
2018-03-26T06:46:54.120Z,11.67
2018-03-26T06:49:21.582Z,15.50
2018-03-26T06:51:49.589Z,12.30
2018-03-26T06:54:17.063Z,13.20
2018-03-26T06:56:44.543Z,13.53
2018-03-26T06:59:11.993Z,13.00
2018-03-26T07:01:39.475Z,11.50
2018-03-26T07:04:06.943Z,13.00
2018-03-26T07:06:34.395Z,11.83
2018-03-26T07:09:01.867Z,13.57
2018-03-26T07:11:30.127Z,14.93
2018-03-26T07:13:57.590Z,14.70
2018-03-26T07:16:25.834Z,13.20
2018-03-26T07:18:53.295Z,16.20
2018-03-26T07:21:20.747Z,14.37
2018-03-26T07:23:48.224Z,14.00
2018-03-26T07:26:15.684Z,18.20
2018-03-26T07:28:43.157Z,12.60
2018-03-26T07:31:11.390Z,16.03
2018-03-26T07:33:38.857Z,17.80
2018-03-26T07:36:06.319Z,16.37
2018-03-26T07:38:33.788Z,15.20
2018-03-26T07:41:02.016Z,16.87
2018-03-26T07:43:29.490Z,17.20
2018-03-26T07:45:56.966Z,14.70
2018-03-26T07:48:24.426Z,16.10
2018-03-26T07:50:51.896Z,16.97
2018-03-26T07:53:19.358Z,14.37
2018-03-26T07:55:47.587Z,15.87
2018-03-26T07:58:15.054Z,16.40
2018-03-26T08:00:42.542Z,17.33
2018-03-26T08:03:09.995Z,19.63
2018-03-26T08:05:37.546Z,18.07
2018-03-26T08:08:05.104Z,21.23
2018-03-26T08:10:32.569Z,21.20
2018-03-26T08:13:00.038Z,19.57
2018-03-26T08:15:28.279Z,19.20
2018-03-26T08:17:55.860Z,19.87
2018-03-26T08:20:23.411Z,20.57
2018-03-26T08:22:50.968Z,19.13
2018-03-26T08:25:18.436Z,20.70
2018-03-26T08:27:46.667Z,19.57
2018-03-26T08:30:14.163Z,22.67
2018-03-26T08:32:42.395Z,23.53
2018-03-26T08:35:09.873Z,23.40
2018-03-26T08:37:37.353Z,22.00
2018-03-26T08:40:04.811Z,20.53
2018-03-26T08:42:32.284Z,24.20
2018-03-26T08:45:01.335Z,25.10
2018-03-26T08:47:28.835Z,23.13
2018-03-26T08:49:57.162Z,21.57
2018-03-26T08:52:24.571Z,24.70
2018-03-26T08:54:53.696Z,22.17
2018-03-26T08:57:21.163Z,22.53
2018-03-26T08:59:48.683Z,22.50
2018-03-26T09:02:16.915Z,22.63
2018-03-26T09:04:44.385Z,20.67
2018-03-26T09:07:11.858Z,20.23
2018-03-26T09:09:40.127Z,21.43
2018-03-26T09:12:07.589Z,17.47
2018-03-26T09:14:35.828Z,18.70
2018-03-26T09:17:04.055Z,20.23
2018-03-26T09:19:32.292Z,19.03
2018-03-26T09:21:59.767Z,19.73
2018-03-26T09:24:27.296Z,18.90
2018-03-26T09:26:54.746Z,20.70
2018-03-26T09:29:22.235Z,22.10
2018-03-26T09:31:49.697Z,17.50
2018-03-26T09:34:17.155Z,20.80
2018-03-26T09:36:44.622Z,21.50
2018-03-26T09:39:12.853Z,19.57
2018-03-26T09:41:40.318Z,17.13
2018-03-26T09:44:07.788Z,17.67
2018-03-26T09:46:35.257Z,15.63
2018-03-26T09:49:02.711Z,15.00
2018-03-26T09:51:30.187Z,14.17
2018-03-26T09:53:58.415Z,11.53
2018-03-26T09:56:25.885Z,11.60
2018-03-26T09:58:53.359Z,11.93
2018-03-26T10:01:20.818Z,9.10
2018-03-26T10:03:49.596Z,10.83
2018-03-26T10:06:17.076Z,6.97
2018-03-26T10:08:45.291Z,2.70
2018-03-26T10:11:12.751Z,2.40
2018-03-26T10:13:40.227Z,4.30
2018-03-26T10:16:07.691Z,2.20
2018-03-26T10:18:35.158Z,3.60
2018-03-26T10:21:02.644Z,7.30
2018-03-26T10:23:30.102Z,8.90
2018-03-26T10:25:57.580Z,10.80
2018-03-26T10:28:25.051Z,9.53
2018-03-26T10:30:52.547Z,8.13
2018-03-26T10:33:20.097Z,8.30
2018-03-26T10:35:47.655Z,9.37
2018-03-26T10:38:15.125Z,9.37
2018-03-26T10:40:43.355Z,9.80
2018-03-26T10:43:10.838Z,8.87
2018-03-26T10:45:38.399Z,9.03
2018-03-26T10:48:05.855Z,9.93
2018-03-26T10:50:33.334Z,10.53
2018-03-26T10:53:01.616Z,9.90
2018-03-26T10:55:29.847Z,9.93
2018-03-26T10:57:57.322Z,10.07
2018-03-26T11:00:25.613Z,11.17
2018-03-26T11:02:53.028Z,10.73
2018-03-26T11:05:21.388Z,10.67
2018-03-26T11:07:48.847Z,11.20
2018-03-26T11:10:16.320Z,11.00
2018-03-26T11:12:43.809Z,10.07
2018-03-26T11:15:12.039Z,8.63
2018-03-26T11:17:39.511Z,8.57
2018-03-26T11:20:06.991Z,9.47
2018-03-26T11:22:34.451Z,8.10
2018-03-26T11:25:01.907Z,8.17
2018-03-26T11:27:30.315Z,7.77
2018-03-26T11:29:57.830Z,7.30
2018-03-26T11:32:25.287Z,6.17
2018-03-26T11:34:52.758Z,8.07
2018-03-26T11:37:20.223Z,7.87
2018-03-26T11:39:48.507Z,7.63
2018-03-26T11:42:16.752Z,9.10
2018-03-26T11:44:44.216Z,8.30
2018-03-26T11:47:11.684Z,9.33
2018-03-26T11:49:39.217Z,8.17
2018-03-26T11:52:06.630Z,7.40
2018-03-26T11:54:34.097Z,8.13
2018-03-26T11:57:01.575Z,7.80
2018-03-26T11:59:29.481Z,6.80
2018-03-26T12:01:56.952Z,7.53
2018-03-26T12:04:25.228Z,7.17
2018-03-26T12:06:53.459Z,7.67
2018-03-26T12:09:20.922Z,7.63
2018-03-26T12:11:48.400Z,6.90
2018-03-26T12:14:15.866Z,6.83
2018-03-26T12:16:43.348Z,6.33
2018-03-26T12:19:10.832Z,6.53
2018-03-26T12:21:38.283Z,6.10
2018-03-26T12:24:17.602Z,6.30
2018-03-26T12:26:45.067Z,6.00
2018-03-26T12:29:24.335Z,5.77
2018-03-26T12:31:51.792Z,5.40
2018-03-26T12:34:44.911Z,4.93
2018-03-26T12:37:12.374Z,4.50
2018-03-26T12:39:39.840Z,4.87
2018-03-26T12:42:07.309Z,5.30
2018-03-26T12:44:46.700Z,5.50
2018-03-26T12:47:14.923Z,5.40
2018-03-26T12:49:42.395Z,6.93
2018-03-26T12:52:21.815Z,7.30
2018-03-26T12:54:49.275Z,7.07
2018-03-26T12:57:29.085Z,7.80
2018-03-26T12:59:56.547Z,7.90
2018-03-26T13:02:28.511Z,8.40
2018-03-26T13:04:55.974Z,5.70
2018-03-26T13:07:23.438Z,5.03
2018-03-26T13:09:50.914Z,7.00
2018-03-26T13:12:18.371Z,6.67
2018-03-26T13:14:45.847Z,7.60
2018-03-26T13:17:13.323Z,11.33
2018-03-26T13:19:41.555Z,12.37
2018-03-26T13:22:09.028Z,13.60
2018-03-26T13:24:36.498Z,16.63
2018-03-26T13:27:04.733Z,17.37
2018-03-26T13:29:32.203Z,17.70
2018-03-26T13:31:59.680Z,16.40
2018-03-26T13:34:27.154Z,16.43
2018-03-26T13:36:55.391Z,16.37
2018-03-26T13:39:22.873Z,16.13
2018-03-26T13:41:50.342Z,18.00
2018-03-26T13:44:18.571Z,17.47
2018-03-26T13:46:46.058Z,17.27
2018-03-26T13:49:13.531Z,17.97
2018-03-26T13:51:41.762Z,18.37
2018-03-26T13:54:09.247Z,19.60
2018-03-26T13:56:36.721Z,17.60
2018-03-26T13:59:04.947Z,17.60
2018-03-26T14:01:32.450Z,16.73
2018-03-26T14:04:00.678Z,17.70
2018-03-26T14:06:28.423Z,15.83
2018-03-26T14:09:20.611Z,15.37
2018-03-26T14:12:00.541Z,15.57
2018-03-26T14:14:39.858Z,19.60
2018-03-26T14:17:19.310Z,20.80
2018-03-26T14:19:46.800Z,20.47
2018-03-26T14:22:15.034Z,22.70
2018-03-26T14:24:42.500Z,23.60
2018-03-26T14:27:10.715Z,25.00
2018-03-26T14:29:39.019Z,23.37
2018-03-26T14:32:07.211Z,23.53
2018-03-26T14:34:34.703Z,25.03
2018-03-26T14:37:02.173Z,24.53
2018-03-26T14:39:30.398Z,26.53
2018-03-26T14:41:57.886Z,24.30
2018-03-26T14:44:25.363Z,23.93
2018-03-26T14:46:53.586Z,24.20
2018-03-26T14:49:21.082Z,25.73
2018-03-26T14:51:48.559Z,25.30
2018-03-26T14:54:16.788Z,29.33
2018-03-26T14:56:44.279Z,26.97
2018-03-26T14:59:12.592Z,28.50
2018-03-26T15:01:40.061Z,26.73
2018-03-26T15:04:07.532Z,25.10
2018-03-26T15:06:34.998Z,26.80
2018-03-26T15:09:02.455Z,27.33
2018-03-26T15:11:29.948Z,25.50
2018-03-26T15:13:58.187Z,27.77
2018-03-26T15:16:25.636Z,27.47
2018-03-26T15:18:53.142Z,25.80
2018-03-26T15:21:21.379Z,26.07
2018-03-26T15:23:48.848Z,23.33
2018-03-26T15:26:16.329Z,23.40
2018-03-26T15:28:44.561Z,24.50
2018-03-26T15:31:12.026Z,25.90
2018-03-26T15:33:39.509Z,25.57
2018-03-26T15:36:07.743Z,21.90
2018-03-26T15:38:35.202Z,22.40
2018-03-26T15:41:02.687Z,19.13
2018-03-26T15:43:30.146Z,16.07
2018-03-26T15:45:57.611Z,13.73
2018-03-26T15:48:25.922Z,13.50
2018-03-26T15:50:53.383Z,13.80
2018-03-26T15:53:21.514Z,14.27
2018-03-26T15:55:50.134Z,13.57
2018-03-26T15:58:17.603Z,12.90
2018-03-26T16:00:45.077Z,12.70
2018-03-26T16:03:22.470Z,13.40
2018-03-26T16:05:49.936Z,12.20
2018-03-26T16:08:17.399Z,10.47
2018-03-26T16:10:44.923Z,9.50
2018-03-26T16:13:12.391Z,9.00
2018-03-26T16:15:39.870Z,9.63
2018-03-26T16:18:07.350Z,8.40
2018-03-26T16:20:35.580Z,7.87
2018-03-26T16:23:03.038Z,7.07
2018-03-26T16:25:30.539Z,9.17
2018-03-26T16:27:58.768Z,7.30
2018-03-26T16:30:26.229Z,7.60
2018-03-26T16:32:53.705Z,7.00
2018-03-26T16:35:21.931Z,5.93
2018-03-26T16:37:50.101Z,5.60
2018-03-26T16:40:17.610Z,5.77
2018-03-26T16:42:45.079Z,5.23
2018-03-26T16:45:13.302Z,5.00
2018-03-26T16:47:40.827Z,5.20
2018-03-26T16:50:09.052Z,5.00
2018-03-26T16:52:36.510Z,4.90
2018-03-26T16:55:04.019Z,4.93
2018-03-26T16:57:31.476Z,4.57
2018-03-26T16:59:58.927Z,4.17
2018-03-26T17:02:27.186Z,5.50
2018-03-26T17:04:55.467Z,5.50
2018-03-26T17:07:22.985Z,4.60
2018-03-26T17:09:50.446Z,4.30
2018-03-26T17:12:17.910Z,4.27
2018-03-26T17:14:45.371Z,4.53
2018-03-26T17:17:12.843Z,3.87
2018-03-26T17:19:40.295Z,3.67
2018-03-26T17:22:07.779Z,3.40
2018-03-26T17:24:35.575Z,3.70
2018-03-26T17:27:03.031Z,3.63
2018-03-26T17:29:30.494Z,3.47
2018-03-26T17:31:58.018Z,4.07
2018-03-26T17:34:25.478Z,5.70
2018-03-26T17:36:52.934Z,4.23
2018-03-26T17:39:20.513Z,4.40
2018-03-26T17:41:47.963Z,3.80
2018-03-26T17:44:15.441Z,3.47
2018-03-26T17:46:42.925Z,4.73
2018-03-26T17:49:10.383Z,3.50
2018-03-26T17:51:37.850Z,5.20
2018-03-26T17:54:05.344Z,4.30
2018-03-26T17:56:32.810Z,4.83
2018-03-26T17:59:00.288Z,4.53
2018-03-26T18:01:27.782Z,4.00
2018-03-26T18:03:55.249Z,4.57
2018-03-26T18:06:23.460Z,4.17
2018-03-26T18:08:51.058Z,4.10
2018-03-26T18:11:18.523Z,3.90
2018-03-26T18:13:45.983Z,4.00
2018-03-26T18:16:13.454Z,4.43
2018-03-26T18:18:41.706Z,4.17
2018-03-26T18:21:09.195Z,3.87
2018-03-26T18:23:36.722Z,4.10
2018-03-26T18:26:04.180Z,4.37
2018-03-26T18:28:31.647Z,4.87
2018-03-26T18:30:59.304Z,5.77
2018-03-26T18:33:26.762Z,4.07
2018-03-26T18:35:54.222Z,3.70
2018-03-26T18:38:21.698Z,4.90
2018-03-26T18:40:49.924Z,4.87
2018-03-26T18:43:17.380Z,7.53
2018-03-26T18:45:44.866Z,7.27
2018-03-26T18:48:12.523Z,6.47
2018-03-26T18:50:39.991Z,5.37
2018-03-26T18:53:08.241Z,4.70
2018-03-26T18:55:35.700Z,5.47
2018-03-26T18:58:03.157Z,4.77
2018-03-26T19:00:30.642Z,4.50
2018-03-26T19:02:58.872Z,5.43
2018-03-26T19:05:26.330Z,5.17
2018-03-26T19:07:53.811Z,5.27
2018-03-26T19:10:22.782Z,5.43
2018-03-26T19:12:50.255Z,5.40
2018-03-26T19:15:17.731Z,5.80
2018-03-26T19:17:45.978Z,5.10
2018-03-26T19:20:14.224Z,5.30
2018-03-26T19:22:41.706Z,6.13
2018-03-26T19:25:09.161Z,5.00
2018-03-26T19:27:36.619Z,5.17
2018-03-26T19:30:04.098Z,5.90
2018-03-26T19:32:31.622Z,8.10
2018-03-26T19:34:59.107Z,7.77
2018-03-26T19:37:27.491Z,8.00
2018-03-26T19:39:54.955Z,7.77
2018-03-26T19:42:22.470Z,7.90
2018-03-26T19:44:49.940Z,7.67
2018-03-26T19:47:17.436Z,8.60
2018-03-26T19:49:45.763Z,10.50
2018-03-26T19:52:13.222Z,8.83
2018-03-26T19:54:40.678Z,8.70
2018-03-26T19:57:08.322Z,10.20
2018-03-26T19:59:35.779Z,9.80
2018-03-26T20:02:03.268Z,9.13
2018-03-26T20:04:30.769Z,9.03
2018-03-26T20:06:58.996Z,10.07
2018-03-26T20:09:26.471Z,10.97
2018-03-26T20:11:53.983Z,10.07
2018-03-26T20:14:21.454Z,9.13
2018-03-26T20:16:49.522Z,9.80
2018-03-26T20:19:17.018Z,10.07
2018-03-26T20:21:44.505Z,10.13
2018-03-26T20:24:12.727Z,9.60
2018-03-26T20:26:40.258Z,9.17
2018-03-26T20:29:07.728Z,10.90
2018-03-26T20:31:35.274Z,10.57
2018-03-26T20:34:03.603Z,10.17
2018-03-26T20:36:31.079Z,10.20
2018-03-26T20:38:59.311Z,9.50
2018-03-26T20:41:26.798Z,10.67
2018-03-26T20:43:55.053Z,12.80
2018-03-26T20:46:22.486Z,12.60
2018-03-26T20:48:49.960Z,14.07
2018-03-26T20:51:17.443Z,14.63
2018-03-26T20:53:44.899Z,12.80
2018-03-26T20:56:13.134Z,12.03
2018-03-26T20:58:41.464Z,11.90
2018-03-26T21:01:09.735Z,11.40
2018-03-26T21:03:37.237Z,11.53
2018-03-26T21:06:04.717Z,10.47
2018-03-26T21:08:32.318Z,10.50
2018-03-26T21:11:00.591Z,12.60
2018-03-26T21:13:28.832Z,10.17
2018-03-26T21:15:56.303Z,10.40
2018-03-26T21:18:23.771Z,11.17
2018-03-26T21:20:51.998Z,12.00
2018-03-26T21:23:20.115Z,10.00
2018-03-26T21:25:48.369Z,9.80
2018-03-26T21:28:15.836Z,12.77
2018-03-26T21:30:44.090Z,12.90
2018-03-26T21:33:11.549Z,13.63
2018-03-26T21:35:39.002Z,11.67
2018-03-26T21:38:06.515Z,11.47
2018-03-26T21:40:35.655Z,11.23
2018-03-26T21:43:03.116Z,11.67
2018-03-26T21:45:30.591Z,11.63
2018-03-26T21:47:58.912Z,12.77
2018-03-26T21:50:26.369Z,11.23
2018-03-26T21:52:53.842Z,11.50
2018-03-26T21:55:21.290Z,12.50
2018-03-26T21:57:48.847Z,11.93
2018-03-26T22:00:19.754Z,11.60
2018-03-26T22:02:48.295Z,12.60
2018-03-26T22:05:15.779Z,12.07
2018-03-26T22:07:43.251Z,13.53
2018-03-26T22:10:11.484Z,11.40
2018-03-26T22:12:38.963Z,10.90
2018-03-26T22:15:06.427Z,9.60
2018-03-26T22:17:33.962Z,9.20
2018-03-26T22:20:01.435Z,9.07
2018-03-26T22:22:28.927Z,11.40
2018-03-26T22:24:56.377Z,10.10
2018-03-26T22:27:23.848Z,9.73
2018-03-26T22:29:51.347Z,10.53
2018-03-26T22:32:18.803Z,10.77
2018-03-26T22:34:46.273Z,11.60
2018-03-26T22:37:14.501Z,10.23
2018-03-26T22:39:41.960Z,9.40
2018-03-26T22:42:09.443Z,11.00
2018-03-26T22:44:36.921Z,12.50
2018-03-26T22:47:04.382Z,12.80
2018-03-26T22:49:31.846Z,11.73
2018-03-26T22:52:00.073Z,11.63
2018-03-26T22:54:27.538Z,13.87
2018-03-26T22:56:55.037Z,13.87
2018-03-26T22:59:23.326Z,13.93
2018-03-26T23:01:51.556Z,12.10
2018-03-26T23:04:19.375Z,10.90
2018-03-26T23:06:46.840Z,12.80
2018-03-26T23:09:14.294Z,12.03
2018-03-26T23:11:41.770Z,12.67
2018-03-26T23:14:09.234Z,12.20
2018-03-26T23:16:36.702Z,10.70
2018-03-26T23:19:04.172Z,12.87
2018-03-26T23:21:32.394Z,11.63
2018-03-26T23:23:59.884Z,12.70
2018-03-26T23:26:27.350Z,11.83
2018-03-26T23:28:54.806Z,12.57
2018-03-26T23:31:22.283Z,12.20
2018-03-26T23:33:49.756Z,10.80
2018-03-26T23:36:17.986Z,10.77
2018-03-26T23:38:45.446Z,11.83
2018-03-26T23:41:12.911Z,12.90
2018-03-26T23:43:40.374Z,10.80
2018-03-26T23:46:08.045Z,11.63
2018-03-26T23:48:35.518Z,10.90
2018-03-26T23:51:03.742Z,12.90
2018-03-26T23:53:31.204Z,12.00
2018-03-26T23:55:58.666Z,12.80
2018-03-26T23:58:26.136Z,12.53
